Wray, GA (31798)

5:28 AM EDT on July 25, 2014 (GMT -0400)
Fitzgerald Municipal (KFZG) Elev 364 ft | 31.68 °N, 83.27 °W | Change Station

Current weather conditions updated 13 minutes ago

Clear
Clear
76 °F
Feels Like 76 °F
N
0
Wind Variable Wind from North

Today is forecast to be nearly the same temperature as yesterday. Thunderstorms likely early tonight.

Today
High -- | Low -- °F
--% Chance of Precip.
Yesterday
High -- | Low -- °F
Precip. -- in
6:44 AM 8:33 PM
Waning Crescent, 2% visible
Pressure 30.03 in
Visibility 10.0 miles
Clouds Clear
Dew Point 73 °F
Humidity 91%
Rainfall 0.00 in
Snow Depth Not available.
UV 0 out of 12
Pollen 4.70 out of 12
Air Quality Not available.
Flu Activity Not available.
METAR KFZG 250915Z AUTO 00000KT 10SM CLR 25/23 A3003 RMK AO2 T02450230

More Conditions Fewer Conditions

Pressure 30.03 in
Visibility 10.0 miles
Clouds Clear
Dew Point 73 °F
Humidity 91%
Rainfall 0.00 in
Snow Depth Not available.
UV 0 out of 12
Pollen 4.70 out of 12
Air Quality Not available.
Flu Activity Not available.
METAR KFZG 250915Z AUTO 00000KT 10SM CLR 25/23 A3003 RMK AO2 T02450230

More Conditions Fewer Conditions

10-Day Weather Forecast

Almanac

Astronomy

Jul. 25, 2014 Rise Set
Actual Time 6:44 AM EDT 8:33 PM EDT
Civil Twilight 6:17 AM EDT 9:00 PM EDT
Nautical Twilight 5:44 AM EDT 9:32 PM EDT
Astronomical Twilight 5:10 AM EDT 10:07 PM EDT
Moon 5:40 AM EDT 7:33 PM EDT
Length of Visible Light 14h 43m
Length of Day
13h 49m
Tomorrow will be 1m 16s shorter.
Waning Crescent, 2% of the Moon is Illuminated
Today
Waning Crescent
Jul 26
New
Aug 3
First Quarter
Aug 10
Full
Aug 17
Last Quarter

Today's Extremes

State Highs State Lows

Community

WunderPhotos

Upload Photos

1,737,276 photos uploaded!

Nearby

Snow Depth

Station Depth Elevation
No new snow has been reported.

Earthquake Activity

City Distance Mag. Time & Date
No recent earthquake activity has been reported nearby.
Minimum magnitude displayed is 2.5.

Coastal Water Temperatures

Place Temperature
No Stations Reporting

Nearby Weather Stations

Station Location Temp. Heat Index Dew Point Humidity Wind Precip. Elev Updated Type
Baymeadows Lake, Douglas, GA 75.2 °F 74 °F 73 °F 93% SSE  at  0.0 mph 0.00 in / hr 256 ft 5:27 AM EDT Rapid Fire
Douglas Golf Club Area, Douglas, GA 75.2 °F 74 °F 73 °F 94% South  at  0.0 mph 0.00 in / hr 224 ft 5:25 AM EDT Rapid Fire
Jacksonville, GA 73.0 °F - 72 °F 97% SE  at  0.0 mph 0.00 in / hr 171 ft 5:18 AM EDT Normal
Forest Lakes, Tifton, GA 74.6 °F 73 °F 73 °F 94% West  at  0.0 mph 0.00 in / hr 329 ft 5:25 AM EDT Normal
Wood Triple Lake Road, Tifton, GA 73.8 °F 70 °F 73 °F 96% SSW  at  0.0 mph 0.00 in / hr 322 ft 5:25 AM EDT Normal

Show More Stations Show Fewer Stations